createdAt,value
2023-03-31T00:00:57.872Z,96007.28
2023-03-31T00:02:59.562Z,96005.13
2023-03-31T00:05:01.360Z,96008.72
2023-03-31T00:07:06.053Z,96002.59
2023-03-31T00:09:15.866Z,95996.69
2023-03-31T00:11:17.410Z,95994.22
2023-03-31T00:13:19.146Z,95996.06
2023-03-31T00:15:21.097Z,95987.31
2023-03-31T00:17:22.725Z,95990.66
2023-03-31T00:19:24.334Z,95978.34
2023-03-31T00:21:29.049Z,95973.63
2023-03-31T00:23:31.535Z,95970.28
2023-03-31T00:25:33.096Z,95973.56
2023-03-31T00:27:34.714Z,95967.50
2023-03-31T00:29:36.233Z,95964.91
2023-03-31T00:31:39.199Z,95955.22
2023-03-31T00:33:40.954Z,95946.47
2023-03-31T00:35:43.512Z,95948.94
2023-03-31T00:37:45.830Z,95932.66
2023-03-31T00:39:47.335Z,95929.38
2023-03-31T00:41:48.992Z,95928.22
2023-03-31T00:44:09.394Z,95924.84
2023-03-31T00:46:19.797Z,95932.69
2023-03-31T00:48:24.072Z,95930.22
2023-03-31T00:50:30.501Z,95929.13
2023-03-31T00:52:37.671Z,95922.72
2023-03-31T00:54:43.319Z,95917.88
2023-03-31T00:56:48.344Z,95920.97
2023-03-31T00:58:50.404Z,95912.06
2023-03-31T01:00:52.858Z,95913.06
2023-03-31T01:02:59.700Z,95917.88
2023-03-31T01:05:02.225Z,95919.72
2023-03-31T01:07:30.378Z,95908.69
2023-03-31T01:09:35.293Z,95904.66
2023-03-31T01:11:37.497Z,95904.25
2023-03-31T01:13:40.970Z,95891.06
2023-03-31T01:15:44.324Z,95891.66
2023-03-31T01:17:47.433Z,95875.38
2023-03-31T01:20:21.247Z,95871.50
2023-03-31T01:22:45.956Z,95868.94
2023-03-31T01:25:05.388Z,95870.00
2023-03-31T01:27:09.664Z,95863.66
2023-03-31T01:29:27.881Z,95868.06
2023-03-31T01:31:35.274Z,95869.56
2023-03-31T01:34:01.728Z,95862.69
2023-03-31T01:36:24.108Z,95870.47
2023-03-31T01:38:38.304Z,95861.38
2023-03-31T01:40:51.869Z,95857.59
2023-03-31T01:43:13.064Z,95852.88
2023-03-31T01:45:37.933Z,95861.81
2023-03-31T01:47:51.955Z,95855.44
2023-03-31T01:50:04.747Z,95856.75
2023-03-31T01:52:26.946Z,95854.41
2023-03-31T01:54:44.571Z,95853.50
2023-03-31T01:57:00.829Z,95852.50
2023-03-31T01:59:16.979Z,95841.59
2023-03-31T02:01:42.222Z,95838.34
2023-03-31T02:03:52.488Z,95823.63
2023-03-31T02:05:58.787Z,95822.03
2023-03-31T02:08:08.306Z,95816.94
2023-03-31T02:10:12.741Z,95820.56
2023-03-31T02:12:18.229Z,95819.84
2023-03-31T02:14:24.598Z,95809.84
2023-03-31T02:16:30.510Z,95804.75
2023-03-31T02:18:38.170Z,95798.25
2023-03-31T02:20:42.054Z,95785.31
2023-03-31T02:22:50.945Z,95793.06
2023-03-31T02:24:54.828Z,95789.19
2023-03-31T02:27:18.004Z,95784.47
2023-03-31T02:29:19.964Z,95784.22
2023-03-31T02:31:41.356Z,95783.50
2023-03-31T02:33:42.990Z,95789.13
2023-03-31T02:35:44.682Z,95770.31
2023-03-31T02:37:53.795Z,95769.44
2023-03-31T02:39:58.800Z,95765.13
2023-03-31T02:42:06.884Z,95774.28
2023-03-31T02:44:09.778Z,95766.91
2023-03-31T02:46:11.857Z,95767.91
2023-03-31T02:48:17.234Z,95760.16
2023-03-31T02:50:24.126Z,95759.59
2023-03-31T02:53:04.576Z,95750.31
2023-03-31T02:55:12.096Z,95750.94
2023-03-31T02:57:51.401Z,95749.44
2023-03-31T03:00:08.127Z,95738.75
2023-03-31T03:02:46.619Z,95726.97
2023-03-31T03:05:12.919Z,95725.50
2023-03-31T03:07:39.381Z,95713.72
2023-03-31T03:09:50.197Z,95706.41
2023-03-31T03:12:16.569Z,95703.72
2023-03-31T03:14:44.628Z,95697.22
2023-03-31T03:16:53.642Z,95689.53
2023-03-31T03:19:00.663Z,95690.44
2023-03-31T03:21:02.246Z,95690.84
2023-03-31T03:23:03.782Z,95680.38
2023-03-31T03:25:10.579Z,95683.94
2023-03-31T03:27:12.095Z,95676.16
2023-03-31T03:29:14.573Z,95656.09
2023-03-31T03:31:16.373Z,95660.91
2023-03-31T03:33:18.083Z,95656.72
2023-03-31T03:35:19.636Z,95656.00
2023-03-31T03:37:21.381Z,95655.09
2023-03-31T03:39:23.105Z,95651.75
2023-03-31T03:41:25.012Z,95642.94
2023-03-31T03:43:26.577Z,95637.13
2023-03-31T03:45:28.246Z,95636.34
2023-03-31T03:47:29.865Z,95626.75
2023-03-31T03:49:31.370Z,95614.97
2023-03-31T03:51:32.894Z,95607.84
2023-03-31T03:53:34.681Z,95590.47
2023-03-31T03:55:36.191Z,95595.38
2023-03-31T03:57:38.305Z,95587.78
2023-03-31T03:59:39.905Z,95594.72
2023-03-31T04:01:41.631Z,95586.38
2023-03-31T04:03:43.428Z,95583.25
2023-03-31T04:05:45.174Z,95569.47
2023-03-31T04:07:46.979Z,95578.19
2023-03-31T04:09:48.543Z,95578.63
2023-03-31T04:11:50.058Z,95584.13
2023-03-31T04:13:52.030Z,95586.63
2023-03-31T04:15:53.802Z,95601.03
2023-03-31T04:17:57.915Z,95587.78
2023-03-31T04:20:09.177Z,95589.09
2023-03-31T04:22:11.681Z,95574.94
2023-03-31T04:24:15.847Z,95574.66
2023-03-31T04:26:18.684Z,95552.72
2023-03-31T04:28:20.574Z,95540.88
2023-03-31T04:30:24.047Z,95538.72
2023-03-31T04:32:25.588Z,95528.81
2023-03-31T04:34:34.838Z,95506.88
2023-03-31T04:36:42.473Z,95519.28
2023-03-31T04:38:46.863Z,95515.19
2023-03-31T04:40:50.542Z,95500.44
2023-03-31T04:42:52.258Z,95511.56
2023-03-31T04:44:53.797Z,95513.28
2023-03-31T04:46:56.196Z,95517.59
2023-03-31T04:48:59.143Z,95505.41
2023-03-31T04:51:00.938Z,95494.75
2023-03-31T04:53:03.305Z,95497.88
2023-03-31T04:55:05.405Z,95512.75
2023-03-31T04:57:07.078Z,95505.63
2023-03-31T04:59:08.820Z,95512.53
2023-03-31T05:01:14.144Z,95507.78
2023-03-31T05:03:18.608Z,95500.03
2023-03-31T05:05:20.459Z,95498.38
2023-03-31T05:07:21.952Z,95496.47
2023-03-31T05:09:23.614Z,95492.78
2023-03-31T05:11:25.819Z,95486.66
2023-03-31T05:13:27.367Z,95479.75
2023-03-31T05:15:29.076Z,95476.19
2023-03-31T05:17:35.475Z,95465.50
2023-03-31T05:19:37.184Z,95465.50
2023-03-31T05:21:38.833Z,95451.47
2023-03-31T05:23:41.017Z,95451.25
2023-03-31T05:25:42.635Z,95447.72
2023-03-31T05:27:47.620Z,95426.63
2023-03-31T05:29:49.422Z,95427.97
2023-03-31T05:31:51.206Z,95425.13
2023-03-31T05:33:52.754Z,95432.44
2023-03-31T05:35:54.934Z,95433.00
2023-03-31T05:37:56.571Z,95436.38
2023-03-31T05:39:58.674Z,95451.59
2023-03-31T05:42:00.645Z,95458.38
2023-03-31T05:44:02.286Z,95460.13
2023-03-31T05:46:04.470Z,95461.38
2023-03-31T05:48:06.966Z,95461.78
2023-03-31T05:50:09.443Z,95460.16
2023-03-31T05:52:12.363Z,95464.09
2023-03-31T05:54:14.311Z,95470.81
2023-03-31T05:56:15.956Z,95473.41
2023-03-31T05:58:17.525Z,95460.03
2023-03-31T06:00:19.702Z,95455.94
2023-03-31T06:02:21.404Z,95444.50
2023-03-31T06:04:24.339Z,95441.94
2023-03-31T06:06:26.073Z,95449.16
2023-03-31T06:08:28.859Z,95451.22
2023-03-31T06:10:30.638Z,95438.47
2023-03-31T06:12:32.528Z,95434.81
2023-03-31T06:14:34.129Z,95429.09
2023-03-31T06:16:35.889Z,95420.72
2023-03-31T06:18:37.980Z,95428.38
2023-03-31T06:20:41.807Z,95426.53
2023-03-31T06:22:43.370Z,95410.03
2023-03-31T06:24:44.962Z,95412.94
2023-03-31T06:26:46.508Z,95398.91
2023-03-31T06:28:48.952Z,95414.13
2023-03-31T06:30:50.861Z,95406.56
2023-03-31T06:32:52.448Z,95405.50
2023-03-31T06:34:54.095Z,95392.78
2023-03-31T06:36:55.672Z,95379.28
2023-03-31T06:38:57.677Z,95370.53
2023-03-31T06:40:59.466Z,95365.19
2023-03-31T06:43:01.223Z,95368.19
2023-03-31T06:45:03.435Z,95347.75
2023-03-31T06:47:05.153Z,95345.38
2023-03-31T06:49:06.755Z,95352.41
2023-03-31T06:51:08.804Z,95330.03
2023-03-31T06:53:11.174Z,95331.63
2023-03-31T06:55:13.510Z,95329.56
2023-03-31T06:57:15.482Z,95319.00
2023-03-31T06:59:17.241Z,95314.38
2023-03-31T07:01:18.813Z,95320.09
2023-03-31T07:03:25.210Z,95307.94
2023-03-31T07:05:28.528Z,95294.03
2023-03-31T07:07:33.549Z,95301.81
2023-03-31T07:09:35.325Z,95281.75
2023-03-31T07:11:37.103Z,95285.81
2023-03-31T07:13:39.264Z,95279.28
2023-03-31T07:15:41.024Z,95272.72
2023-03-31T07:17:42.928Z,95264.63
2023-03-31T07:19:47.911Z,95268.78
2023-03-31T07:21:50.421Z,95255.03
2023-03-31T07:23:52.119Z,95247.81
2023-03-31T07:25:53.746Z,95239.84
2023-03-31T07:27:55.530Z,95243.06
2023-03-31T07:29:57.251Z,95233.72
2023-03-31T07:31:58.784Z,95226.63
2023-03-31T07:34:02.077Z,95231.47
2023-03-31T07:36:12.520Z,95229.16
2023-03-31T07:38:14.942Z,95227.13
2023-03-31T07:40:21.566Z,95220.59
2023-03-31T07:42:23.081Z,95229.28
2023-03-31T07:44:24.871Z,95220.28
2023-03-31T07:46:28.460Z,95211.88
2023-03-31T07:48:30.117Z,95213.84
2023-03-31T07:50:31.880Z,95218.94
2023-03-31T07:52:35.984Z,95224.53
2023-03-31T07:54:38.586Z,95222.34
2023-03-31T07:56:40.352Z,95228.34
2023-03-31T07:58:41.910Z,95213.06
2023-03-31T08:00:43.677Z,95212.56
2023-03-31T08:02:46.049Z,95214.47
2023-03-31T08:04:47.781Z,95209.94
2023-03-31T08:06:51.015Z,95208.44
2023-03-31T08:08:52.667Z,95199.97
2023-03-31T08:10:54.267Z,95193.63
2023-03-31T08:12:56.033Z,95198.22
2023-03-31T08:14:57.572Z,95200.03
2023-03-31T08:17:00.194Z,95209.06
2023-03-31T08:19:02.023Z,95216.94
2023-03-31T08:21:03.830Z,95214.25
2023-03-31T08:23:08.942Z,95218.97
2023-03-31T08:25:11.280Z,95207.75
2023-03-31T08:27:12.798Z,95219.31
2023-03-31T08:29:14.535Z,95221.03
2023-03-31T08:31:17.227Z,95224.47
2023-03-31T08:33:19.375Z,95228.97
2023-03-31T08:35:21.047Z,95222.59
2023-03-31T08:37:22.624Z,95214.88
2023-03-31T08:39:24.309Z,95211.34
2023-03-31T08:41:58.456Z,95218.66
2023-03-31T08:44:04.749Z,95220.31
2023-03-31T08:46:11.241Z,95224.13
2023-03-31T08:48:26.998Z,95213.78
2023-03-31T08:50:32.888Z,95216.91
2023-03-31T08:52:40.639Z,95206.72
2023-03-31T08:54:46.497Z,95217.88
2023-03-31T08:56:50.707Z,95218.38
2023-03-31T08:58:53.860Z,95224.84
2023-03-31T09:01:20.330Z,95223.53
2023-03-31T09:03:38.816Z,95221.75
2023-03-31T09:05:59.422Z,95228.06
2023-03-31T09:08:14.615Z,95230.13
2023-03-31T09:10:24.904Z,95236.63
2023-03-31T09:12:56.185Z,95229.00
2023-03-31T09:15:01.479Z,95228.19
2023-03-31T09:17:26.393Z,95233.31
2023-03-31T09:19:38.487Z,95239.56
2023-03-31T09:21:48.125Z,95230.22
2023-03-31T09:24:16.101Z,95217.34
2023-03-31T09:26:25.171Z,95224.84
2023-03-31T09:28:35.155Z,95226.75
2023-03-31T09:30:38.296Z,95224.19
2023-03-31T09:32:40.070Z,95227.06
2023-03-31T09:34:41.816Z,95217.75
2023-03-31T09:36:43.541Z,95208.72
2023-03-31T09:38:46.537Z,95221.56
2023-03-31T09:40:48.329Z,95224.09
2023-03-31T09:43:04.771Z,95221.41
2023-03-31T09:45:06.886Z,95210.16
2023-03-31T09:47:16.954Z,95200.41
2023-03-31T09:49:22.848Z,95202.06
2023-03-31T09:51:32.513Z,95193.41
2023-03-31T09:53:52.675Z,95200.56
2023-03-31T09:55:58.714Z,95191.75
2023-03-31T09:58:01.674Z,95193.69
2023-03-31T10:00:24.219Z,95200.41
2023-03-31T10:02:40.682Z,95188.41
2023-03-31T10:04:46.378Z,95195.63
2023-03-31T10:06:49.004Z,95198.50
2023-03-31T10:09:05.093Z,95198.94
2023-03-31T10:11:12.258Z,95188.28
2023-03-31T10:13:17.153Z,95195.78
2023-03-31T10:15:21.882Z,95196.81
2023-03-31T10:17:27.247Z,95205.69
2023-03-31T10:19:31.590Z,95200.44
2023-03-31T10:21:37.145Z,95178.03
2023-03-31T10:23:39.045Z,95181.94
2023-03-31T10:25:40.906Z,95177.50
2023-03-31T10:27:47.272Z,95185.69
2023-03-31T10:29:56.388Z,95173.09
2023-03-31T10:32:13.109Z,95177.25
2023-03-31T10:34:17.061Z,95176.66
2023-03-31T10:36:29.442Z,95171.34
2023-03-31T10:38:45.177Z,95179.34
2023-03-31T10:40:56.588Z,95171.88
2023-03-31T10:43:04.465Z,95171.00
2023-03-31T10:45:11.509Z,95171.22
2023-03-31T10:47:12.944Z,95187.59
2023-03-31T10:49:27.791Z,95168.53
2023-03-31T10:51:30.572Z,95171.56
2023-03-31T10:53:42.741Z,95170.19
2023-03-31T10:56:12.497Z,95163.03
2023-03-31T10:58:31.451Z,95173.50
2023-03-31T11:00:59.058Z,95174.16
2023-03-31T11:03:34.953Z,95152.50
2023-03-31T11:05:49.593Z,95165.53
2023-03-31T11:08:10.082Z,95164.53
2023-03-31T11:10:33.207Z,95165.59
2023-03-31T11:13:02.853Z,95178.66
2023-03-31T11:15:32.871Z,95167.69
2023-03-31T11:18:02.381Z,95163.66
2023-03-31T11:20:12.838Z,95168.28
2023-03-31T11:22:34.668Z,95174.31
2023-03-31T11:24:59.570Z,95171.28
2023-03-31T11:27:09.280Z,95156.03
2023-03-31T11:29:19.700Z,95160.25
2023-03-31T11:31:40.609Z,95161.03
2023-03-31T11:33:56.985Z,95143.19
2023-03-31T11:36:26.059Z,95140.38
2023-03-31T11:38:39.788Z,95132.88
2023-03-31T11:40:41.317Z,95132.56
2023-03-31T11:42:57.392Z,95121.44
2023-03-31T11:45:14.512Z,95123.25
2023-03-31T11:47:22.339Z,95124.34
2023-03-31T11:49:30.963Z,95122.34
2023-03-31T11:51:42.501Z,95136.38
2023-03-31T11:53:46.287Z,95124.84
2023-03-31T11:55:52.660Z,95128.34
2023-03-31T11:57:56.869Z,95129.34
2023-03-31T12:00:22.542Z,95123.84
2023-03-31T12:02:48.441Z,95119.66
2023-03-31T12:04:55.920Z,95122.06
2023-03-31T12:07:23.708Z,95118.91
2023-03-31T12:09:55.320Z,95107.94
2023-03-31T12:12:07.759Z,95105.97
2023-03-31T12:14:30.451Z,95081.63
2023-03-31T12:16:48.367Z,95102.56
2023-03-31T12:19:36.580Z,95082.13
2023-03-31T12:21:44.206Z,95069.44
2023-03-31T12:23:46.093Z,95073.22
2023-03-31T12:26:18.162Z,95067.97
2023-03-31T12:28:20.573Z,95060.75
2023-03-31T12:30:42.068Z,95054.94
2023-03-31T12:32:52.759Z,95049.03
2023-03-31T12:35:01.863Z,95050.06
2023-03-31T12:37:29.461Z,95053.66
2023-03-31T12:39:52.738Z,95058.00
2023-03-31T12:42:19.410Z,95049.16
2023-03-31T12:44:36.291Z,95048.94
2023-03-31T12:47:03.645Z,95035.97
2023-03-31T12:49:24.968Z,95036.63
2023-03-31T12:51:40.615Z,95039.22
2023-03-31T12:54:08.518Z,95022.34
2023-03-31T12:56:10.215Z,95023.97
2023-03-31T12:58:39.594Z,95039.47
2023-03-31T13:01:10.339Z,95027.78
2023-03-31T13:03:53.641Z,95027.34
2023-03-31T13:05:55.428Z,95029.66
2023-03-31T13:07:57.055Z,95026.13
2023-03-31T13:10:22.195Z,95035.19
2023-03-31T13:12:27.801Z,95026.66
2023-03-31T13:14:37.364Z,95041.38
2023-03-31T13:16:39.531Z,95046.13
2023-03-31T13:18:43.609Z,95052.78
2023-03-31T13:20:46.194Z,95080.66
2023-03-31T13:22:52.591Z,95070.09
2023-03-31T13:24:54.252Z,95071.53
2023-03-31T13:26:59.054Z,95065.41
2023-03-31T13:29:16.276Z,95076.91
2023-03-31T13:31:18.032Z,95073.84
2023-03-31T13:33:23.075Z,95073.75
2023-03-31T13:35:30.584Z,95046.06
2023-03-31T13:37:57.941Z,95055.75
2023-03-31T13:40:20.846Z,95040.63
2023-03-31T13:42:40.726Z,95043.03
2023-03-31T13:44:51.553Z,95041.75
2023-03-31T13:47:17.169Z,95051.88
2023-03-31T13:49:18.862Z,95051.28
2023-03-31T13:51:36.512Z,95051.94
2023-03-31T13:54:04.717Z,95041.84
2023-03-31T13:56:09.153Z,95040.59
2023-03-31T13:59:05.356Z,95033.00
2023-03-31T14:01:31.917Z,95039.44
2023-03-31T14:03:48.768Z,95016.59
2023-03-31T14:05:50.513Z,95027.66
2023-03-31T14:08:03.470Z,95033.03
2023-03-31T14:10:07.285Z,95043.41
2023-03-31T14:12:21.953Z,95041.84
2023-03-31T14:14:24.867Z,95048.84
2023-03-31T14:16:28.348Z,95038.13
2023-03-31T14:18:38.319Z,95049.72
2023-03-31T14:20:44.090Z,95059.31
2023-03-31T14:23:03.154Z,95068.53
2023-03-31T14:25:04.715Z,95039.94
2023-03-31T14:27:34.854Z,95051.16
2023-03-31T14:30:06.334Z,95048.88
2023-03-31T14:32:33.992Z,95018.91
2023-03-31T14:34:54.751Z,95028.66
2023-03-31T14:37:04.277Z,95026.44
2023-03-31T14:39:10.021Z,95024.81
2023-03-31T14:41:29.711Z,95028.00
2023-03-31T14:45:44.485Z,95015.31
2023-03-31T14:48:04.715Z,95010.81
2023-03-31T14:50:18.144Z,95009.19
2023-03-31T14:52:23.893Z,95013.03
2023-03-31T14:54:25.821Z,95008.06
2023-03-31T14:56:38.904Z,95012.34
2023-03-31T14:58:45.909Z,94998.19
2023-03-31T15:00:47.877Z,94985.84
2023-03-31T15:02:49.836Z,95002.34
2023-03-31T15:04:52.071Z,95016.41
2023-03-31T15:06:54.307Z,95007.47
2023-03-31T15:09:00.936Z,94999.31
2023-03-31T15:11:12.866Z,95008.03
2023-03-31T15:13:20.619Z,95013.56
2023-03-31T15:15:22.928Z,95000.88
2023-03-31T15:17:36.378Z,95000.53
2023-03-31T15:19:41.145Z,95012.50
2023-03-31T15:21:43.870Z,95003.09
2023-03-31T15:23:45.695Z,95019.84
2023-03-31T15:25:47.787Z,94999.53
2023-03-31T15:27:58.345Z,94990.81
2023-03-31T15:30:02.857Z,94996.41
2023-03-31T15:32:13.575Z,95004.06
2023-03-31T15:34:24.821Z,95003.16
2023-03-31T15:36:31.460Z,94998.81
2023-03-31T15:38:35.467Z,95005.66
2023-03-31T15:40:40.913Z,95005.50
2023-03-31T15:42:50.635Z,95000.59
2023-03-31T15:45:43.878Z,95011.31
2023-03-31T15:47:52.754Z,95030.03
2023-03-31T15:50:03.085Z,95024.19
2023-03-31T15:52:05.019Z,95021.75
2023-03-31T15:54:26.751Z,95040.28
2023-03-31T15:56:43.499Z,95090.84
2023-03-31T15:58:56.601Z,95057.16
2023-03-31T16:01:05.091Z,95080.34
2023-03-31T16:03:16.441Z,95068.34
2023-03-31T16:05:53.451Z,95069.81
2023-03-31T16:07:57.406Z,95071.03
2023-03-31T16:10:04.835Z,95045.69
2023-03-31T16:12:18.144Z,95041.34
2023-03-31T16:14:25.248Z,95011.31
2023-03-31T16:16:29.718Z,95034.41
2023-03-31T16:18:38.357Z,95040.16
2023-03-31T16:20:45.905Z,95037.44
2023-03-31T16:22:51.300Z,95037.44
2023-03-31T16:24:52.953Z,95025.56
2023-03-31T16:27:06.301Z,95035.44
2023-03-31T16:29:08.231Z,95038.72
2023-03-31T16:31:29.500Z,95044.00
2023-03-31T16:33:51.506Z,95037.72
2023-03-31T16:35:56.197Z,95035.34
2023-03-31T16:37:58.831Z,95046.16
2023-03-31T16:40:00.442Z,95050.31
2023-03-31T16:42:01.939Z,95039.66
2023-03-31T16:44:03.559Z,95039.66
2023-03-31T16:46:05.321Z,95040.88
2023-03-31T16:48:15.507Z,95036.78
2023-03-31T16:50:17.542Z,95032.59
2023-03-31T16:52:19.654Z,95036.78
2023-03-31T16:54:21.216Z,95028.63
2023-03-31T16:56:23.176Z,95030.56
2023-03-31T16:58:26.078Z,95024.34
2023-03-31T17:00:28.427Z,95028.16
2023-03-31T17:02:29.947Z,95030.06
2023-03-31T17:04:31.660Z,95033.66
2023-03-31T17:06:33.470Z,95017.75
2023-03-31T17:08:35.143Z,95026.78
2023-03-31T17:10:38.290Z,95035.19
2023-03-31T17:12:41.168Z,95036.28
2023-03-31T17:14:42.883Z,95033.88
2023-03-31T17:19:06.028Z,95028.16
2023-03-31T17:21:11.638Z,95031.34
2023-03-31T17:23:13.774Z,95026.06
2023-03-31T17:25:15.848Z,95022.75
2023-03-31T17:27:17.385Z,95030.25
2023-03-31T17:29:18.947Z,95029.25
2023-03-31T17:31:21.796Z,95036.09
2023-03-31T17:33:23.464Z,95040.19
2023-03-31T17:35:25.812Z,95040.50
2023-03-31T17:37:27.335Z,95039.25
2023-03-31T17:39:29.441Z,95041.06
2023-03-31T17:41:31.548Z,95046.53
2023-03-31T17:43:33.390Z,95043.59
2023-03-31T17:45:35.023Z,95039.91
2023-03-31T17:47:37.798Z,95053.19
2023-03-31T17:49:39.343Z,95061.16
2023-03-31T17:51:40.908Z,95062.78
2023-03-31T17:53:44.970Z,95061.25
2023-03-31T17:55:46.766Z,95055.00
2023-03-31T17:57:48.332Z,95054.50
2023-03-31T17:59:49.946Z,95066.06
2023-03-31T18:01:51.517Z,95059.50
2023-03-31T18:03:55.179Z,95053.06
2023-03-31T18:05:56.955Z,95053.41
2023-03-31T18:07:59.223Z,95062.38
2023-03-31T18:10:00.870Z,95051.59
2023-03-31T18:12:02.685Z,95063.25
2023-03-31T18:14:04.677Z,95052.31
2023-03-31T18:16:09.449Z,95053.81
2023-03-31T18:18:11.201Z,95058.75
2023-03-31T18:20:12.979Z,95051.66
2023-03-31T18:22:14.471Z,95058.56
2023-03-31T18:24:16.775Z,95048.22
2023-03-31T18:26:19.389Z,95064.97
2023-03-31T18:28:21.067Z,95067.41
2023-03-31T18:30:22.687Z,95062.03
2023-03-31T18:32:24.414Z,95061.75
2023-03-31T18:34:26.543Z,95068.53
2023-03-31T18:36:29.620Z,95068.69
2023-03-31T18:38:32.095Z,95070.09
2023-03-31T18:40:33.662Z,95073.06
2023-03-31T18:42:35.969Z,95078.06
2023-03-31T18:44:39.168Z,95083.31
2023-03-31T18:46:40.760Z,95080.59
2023-03-31T18:48:42.329Z,95084.31
2023-03-31T18:50:44.391Z,95084.84
2023-03-31T18:52:47.685Z,95083.28
2023-03-31T18:54:51.307Z,95095.53
2023-03-31T18:56:53.075Z,95079.56
2023-03-31T18:58:54.726Z,95084.84
2023-03-31T19:00:57.986Z,95091.56
2023-03-31T19:02:59.623Z,95081.28
2023-03-31T19:05:01.256Z,95080.09
2023-03-31T19:07:02.779Z,95095.47
2023-03-31T19:09:04.844Z,95088.31
2023-03-31T19:11:10.543Z,95101.47
2023-03-31T19:13:15.888Z,95104.25
2023-03-31T19:15:17.908Z,95118.22
2023-03-31T19:17:19.863Z,95113.50
2023-03-31T19:19:21.669Z,95105.19
2023-03-31T19:21:24.377Z,95119.91
2023-03-31T19:23:26.474Z,95107.69
2023-03-31T19:25:28.233Z,95108.88
2023-03-31T19:27:30.440Z,95105.03
2023-03-31T19:29:32.648Z,95103.53
2023-03-31T19:31:38.302Z,95107.91
2023-03-31T19:33:40.016Z,95102.44
2023-03-31T19:35:43.554Z,95095.25
2023-03-31T19:37:46.181Z,95098.25
2023-03-31T19:39:48.132Z,95106.94
2023-03-31T19:41:49.614Z,95095.88
2023-03-31T19:43:51.238Z,95092.50
2023-03-31T19:45:54.023Z,95093.63
2023-03-31T19:47:56.037Z,95090.91
2023-03-31T19:49:57.573Z,95080.41
2023-03-31T19:51:59.132Z,95092.13
2023-03-31T19:54:00.762Z,95089.88
2023-03-31T19:56:05.944Z,95080.94
2023-03-31T19:58:07.836Z,95084.94
2023-03-31T20:00:10.050Z,95088.81
2023-03-31T20:02:13.741Z,95094.00
2023-03-31T20:04:18.316Z,95081.94
2023-03-31T20:06:25.494Z,95078.81
2023-03-31T20:08:27.493Z,95078.19
2023-03-31T20:10:29.058Z,95076.75
2023-03-31T20:12:30.616Z,95077.28
2023-03-31T20:14:32.176Z,95081.53
2023-03-31T20:16:33.817Z,95075.91
2023-03-31T20:18:37.060Z,95082.41
2023-03-31T20:20:40.805Z,95081.50
2023-03-31T20:22:42.431Z,95089.31
2023-03-31T20:24:43.949Z,95091.00
2023-03-31T20:26:45.710Z,95092.22
2023-03-31T20:28:47.876Z,95083.66
2023-03-31T20:30:49.496Z,95096.22
2023-03-31T20:32:51.341Z,95089.16
2023-03-31T20:34:52.967Z,95091.25
2023-03-31T20:36:54.516Z,95101.09
2023-03-31T20:38:57.058Z,95080.81
2023-03-31T20:40:58.504Z,95092.34
2023-03-31T20:42:59.996Z,95091.25
2023-03-31T20:45:01.824Z,95100.84
2023-03-31T20:47:03.901Z,95086.25
2023-03-31T20:49:07.153Z,95088.28
2023-03-31T20:51:12.100Z,95097.84
2023-03-31T20:53:14.154Z,95082.88
2023-03-31T20:55:16.766Z,95096.22
2023-03-31T20:57:18.267Z,95099.28
2023-03-31T20:59:20.268Z,95107.44
2023-03-31T21:01:22.266Z,95102.53
2023-03-31T21:03:23.902Z,95098.34
2023-03-31T21:05:25.427Z,95100.50
2023-03-31T21:07:27.070Z,95096.16
2023-03-31T21:09:28.769Z,95110.50
2023-03-31T21:11:30.296Z,95089.91
2023-03-31T21:13:32.023Z,95104.91
2023-03-31T21:15:33.607Z,95103.16
2023-03-31T21:17:35.247Z,95107.06
2023-03-31T21:19:36.838Z,95098.91
2023-03-31T21:21:40.934Z,95096.91
2023-03-31T21:23:42.736Z,95083.38
2023-03-31T21:25:52.683Z,95109.31
2023-03-31T21:27:54.243Z,95100.19
2023-03-31T21:29:55.729Z,95099.34
2023-03-31T21:31:57.274Z,95091.00
2023-03-31T21:34:01.248Z,95087.78
2023-03-31T21:36:03.447Z,95087.00
2023-03-31T21:38:05.015Z,95099.66
2023-03-31T21:40:07.314Z,95097.84
2023-03-31T21:42:08.802Z,95109.31
2023-03-31T21:44:10.355Z,95108.00
2023-03-31T21:46:16.998Z,95096.59
2023-03-31T21:48:20.831Z,95105.56
2023-03-31T21:50:22.338Z,95097.03
2023-03-31T21:52:24.437Z,95102.59
2023-03-31T21:54:26.408Z,95101.78
2023-03-31T21:56:28.537Z,95102.69
2023-03-31T21:58:33.811Z,95095.16
2023-03-31T22:00:36.119Z,95106.56
2023-03-31T22:02:38.959Z,95097.66
2023-03-31T22:04:41.315Z,95110.22
2023-03-31T22:06:42.975Z,95101.78
2023-03-31T22:08:44.559Z,95108.69
2023-03-31T22:10:50.628Z,95099.28
2023-03-31T22:12:52.364Z,95107.78
2023-03-31T22:14:54.433Z,95108.50
2023-03-31T22:16:56.604Z,95104.00
2023-03-31T22:18:59.951Z,95107.59
2023-03-31T22:21:23.363Z,95103.13
2023-03-31T22:23:26.024Z,95100.97
2023-03-31T22:25:27.510Z,95110.44
2023-03-31T22:27:29.037Z,95105.50
2023-03-31T22:29:31.982Z,95097.56
2023-03-31T22:31:33.569Z,95108.63
2023-03-31T22:33:35.336Z,95101.34
2023-03-31T22:35:37.207Z,95116.19
2023-03-31T22:37:38.973Z,95105.31
2023-03-31T22:39:40.662Z,95110.31
2023-03-31T22:41:43.061Z,95111.50
2023-03-31T22:43:46.055Z,95105.88
2023-03-31T22:45:48.224Z,95104.66
2023-03-31T22:47:49.870Z,95104.28
2023-03-31T22:49:51.463Z,95114.31
2023-03-31T22:51:53.763Z,95102.16
2023-03-31T22:53:56.143Z,95108.06
2023-03-31T22:56:06.714Z,95104.91
2023-03-31T22:58:08.340Z,95111.69
2023-03-31T23:00:10.542Z,95107.56
2023-03-31T23:02:12.150Z,95110.44
2023-03-31T23:04:13.751Z,95115.88
2023-03-31T23:06:16.487Z,95107.00
2023-03-31T23:08:18.348Z,95108.81
2023-03-31T23:10:20.110Z,95102.00
2023-03-31T23:12:24.886Z,95101.78
2023-03-31T23:14:26.888Z,95109.44
2023-03-31T23:16:28.451Z,95100.59
2023-03-31T23:18:30.296Z,95110.63
2023-03-31T23:20:31.798Z,95103.53
2023-03-31T23:22:34.076Z,95105.97
2023-03-31T23:24:36.106Z,95110.53
2023-03-31T23:26:38.110Z,95110.66
2023-03-31T23:28:39.605Z,95106.50
2023-03-31T23:30:41.215Z,95104.50
2023-03-31T23:32:42.761Z,95102.69
2023-03-31T23:34:44.346Z,95109.84
2023-03-31T23:36:46.000Z,95106.00
2023-03-31T23:38:48.944Z,95105.06
2023-03-31T23:40:50.440Z,95106.56
2023-03-31T23:42:51.932Z,95110.06
2023-03-31T23:44:53.423Z,95106.56
2023-03-31T23:46:54.936Z,95111.69
2023-03-31T23:48:57.105Z,95113.88
2023-03-31T23:50:58.867Z,95102.44
2023-03-31T23:53:01.225Z,95105.97
2023-03-31T23:55:04.372Z,95114.44
2023-03-31T23:57:06.110Z,95105.19
2023-03-31T23:59:07.887Z,95094.97
